createdAt,value
2017-11-05T00:01:57.399Z,13.90
2017-11-05T00:04:25.089Z,13.80
2017-11-05T00:06:52.829Z,13.80
2017-11-05T00:09:20.592Z,14.00
2017-11-05T00:11:48.232Z,13.90
2017-11-05T00:14:15.918Z,14.10
2017-11-05T00:16:43.709Z,14.00
2017-11-05T00:19:11.359Z,14.00
2017-11-05T00:21:39.002Z,14.00
2017-11-05T00:24:06.708Z,14.00
2017-11-05T00:26:34.348Z,13.80
2017-11-05T00:29:01.989Z,13.80
2017-11-05T00:31:30.483Z,13.60
2017-11-05T00:33:58.143Z,13.60
2017-11-05T00:36:25.804Z,13.50
2017-11-05T00:38:53.371Z,13.50
2017-11-05T00:41:20.921Z,13.90
2017-11-05T00:43:48.580Z,13.90
2017-11-05T00:46:16.214Z,14.10
2017-11-05T00:48:43.790Z,13.80
2017-11-05T00:51:11.465Z,13.60
2017-11-05T00:53:39.144Z,13.40
2017-11-05T00:56:06.687Z,13.50
2017-11-05T00:58:34.210Z,13.90
2017-11-05T01:01:01.738Z,14.10
2017-11-05T01:03:29.383Z,14.10
2017-11-05T01:05:57.075Z,14.30
2017-11-05T01:08:24.579Z,14.10
2017-11-05T01:10:52.079Z,13.80
2017-11-05T01:13:19.912Z,13.70
2017-11-05T01:15:47.630Z,13.50
2017-11-05T01:18:15.147Z,13.30
2017-11-05T01:20:42.630Z,13.10
2017-11-05T01:23:10.118Z,13.30
2017-11-05T01:25:38.506Z,13.40
2017-11-05T01:28:06.765Z,13.50
2017-11-05T01:30:34.255Z,13.50
2017-11-05T01:33:01.771Z,13.50
2017-11-05T01:35:29.398Z,13.60
2017-11-05T01:37:56.888Z,13.60
2017-11-05T01:40:24.388Z,13.60
2017-11-05T01:42:51.922Z,13.70
2017-11-05T01:45:19.465Z,13.60
2017-11-05T01:47:47.097Z,13.60
2017-11-05T01:50:14.707Z,13.30
2017-11-05T01:52:43.040Z,12.90
2017-11-05T01:55:10.692Z,12.80
2017-11-05T01:57:38.188Z,12.80
2017-11-05T02:00:05.686Z,12.70
2017-11-05T02:02:33.967Z,13.10
2017-11-05T02:05:02.240Z,13.20
2017-11-05T02:07:30.501Z,13.10
2017-11-05T02:09:57.987Z,13.10
2017-11-05T02:12:26.243Z,13.20
2017-11-05T02:14:53.725Z,13.20
2017-11-05T02:17:21.992Z,13.10
2017-11-05T02:19:50.243Z,13.10
2017-11-05T02:22:17.734Z,13.10
2017-11-05T02:24:45.999Z,12.80
2017-11-05T02:27:14.266Z,12.90
2017-11-05T02:29:41.752Z,12.80
2017-11-05T02:32:10.014Z,12.90
2017-11-05T02:34:38.269Z,13.00
2017-11-05T02:37:05.771Z,12.90
2017-11-05T02:39:33.266Z,13.00
2017-11-05T02:42:00.756Z,13.00
2017-11-05T02:44:29.759Z,12.80
2017-11-05T02:46:58.022Z,12.60
2017-11-05T02:49:25.520Z,12.50
2017-11-05T02:51:53.011Z,12.70
2017-11-05T02:54:20.512Z,12.80
2017-11-05T02:56:48.769Z,12.80
2017-11-05T02:59:16.264Z,12.80
2017-11-05T03:01:44.527Z,12.70
2017-11-05T03:04:12.773Z,12.70
2017-11-05T03:06:40.266Z,12.70
2017-11-05T03:09:08.524Z,12.70
2017-11-05T03:11:36.030Z,12.70
2017-11-05T03:14:03.522Z,12.60
2017-11-05T03:16:31.015Z,12.70
2017-11-05T03:18:59.274Z,13.40
2017-11-05T03:21:26.757Z,13.40
2017-11-05T03:23:55.001Z,12.90
2017-11-05T03:26:22.491Z,12.90
2017-11-05T03:28:50.750Z,12.60
2017-11-05T03:31:18.259Z,12.60
2017-11-05T03:33:45.763Z,12.80
2017-11-05T03:36:13.306Z,13.30
2017-11-05T03:38:40.805Z,13.70
2017-11-05T03:41:09.050Z,13.10
2017-11-05T03:43:36.544Z,13.00
2017-11-05T03:46:04.804Z,14.00
2017-11-05T03:48:32.292Z,14.00
2017-11-05T03:51:00.542Z,14.30
2017-11-05T03:53:28.032Z,14.30
2017-11-05T03:55:55.519Z,13.80
2017-11-05T03:58:23.015Z,13.20
2017-11-05T04:00:50.502Z,13.20
2017-11-05T04:03:18.751Z,13.10
2017-11-05T04:05:46.237Z,13.10
2017-11-05T04:08:14.503Z,13.30
2017-11-05T04:10:42.753Z,13.60
2017-11-05T04:13:10.240Z,13.60
2017-11-05T04:15:38.523Z,14.40
2017-11-05T04:18:06.774Z,13.90
2017-11-05T04:20:34.264Z,13.80
2017-11-05T04:23:02.514Z,13.30
2017-11-05T04:25:30.016Z,13.20
2017-11-05T04:27:57.506Z,13.00
2017-11-05T04:30:25.005Z,12.90
2017-11-05T04:32:53.268Z,12.90
2017-11-05T04:35:20.767Z,12.80
2017-11-05T04:37:48.259Z,12.90
2017-11-05T04:40:15.746Z,12.80
2017-11-05T04:42:43.241Z,13.20
2017-11-05T04:45:10.739Z,13.00
2017-11-05T04:47:38.240Z,13.30
2017-11-05T04:50:06.503Z,12.90
2017-11-05T04:52:33.997Z,12.90
2017-11-05T04:55:01.478Z,13.00
2017-11-05T04:57:28.979Z,12.90
2017-11-05T04:59:56.480Z,13.50
2017-11-05T05:02:23.974Z,13.70
2017-11-05T05:04:51.480Z,13.10
2017-11-05T05:07:19.730Z,13.10
2017-11-05T05:09:47.209Z,13.00
2017-11-05T05:12:15.469Z,13.30
2017-11-05T05:14:42.958Z,13.20
2017-11-05T05:17:10.452Z,13.10
2017-11-05T05:19:37.952Z,12.70
2017-11-05T05:22:05.446Z,12.80
2017-11-05T05:24:32.938Z,13.00
2017-11-05T05:27:00.430Z,13.00
2017-11-05T05:29:27.925Z,13.10
2017-11-05T05:31:55.434Z,12.90
2017-11-05T05:34:22.921Z,12.90
2017-11-05T05:36:51.179Z,12.90
2017-11-05T05:39:18.715Z,12.80
2017-11-05T05:41:46.237Z,12.80
2017-11-05T05:44:13.730Z,13.00
2017-11-05T05:46:41.231Z,13.30
2017-11-05T05:49:09.590Z,12.80
2017-11-05T05:51:37.207Z,12.80
2017-11-05T05:54:04.699Z,12.80
2017-11-05T05:56:32.200Z,13.10
2017-11-05T05:59:00.541Z,13.80
2017-11-05T06:01:28.043Z,13.70
2017-11-05T06:03:55.669Z,13.60
2017-11-05T06:06:23.227Z,13.70
2017-11-05T06:08:51.476Z,13.50
2017-11-05T06:11:19.124Z,13.50
2017-11-05T06:13:46.660Z,13.90
2017-11-05T06:16:14.208Z,14.00
2017-11-05T06:18:42.479Z,14.00
2017-11-05T06:21:10.030Z,14.00
2017-11-05T06:23:37.530Z,14.00
2017-11-05T06:26:05.075Z,13.60
2017-11-05T06:28:33.380Z,13.80
2017-11-05T06:31:00.866Z,13.70
2017-11-05T06:33:28.403Z,13.80
2017-11-05T06:35:55.930Z,13.30
2017-11-05T06:38:24.436Z,13.10
2017-11-05T06:40:52.004Z,13.00
2017-11-05T06:43:19.588Z,13.30
2017-11-05T06:45:47.084Z,13.30
2017-11-05T06:48:15.359Z,14.10
2017-11-05T06:50:42.833Z,14.10
2017-11-05T06:53:11.102Z,14.50
2017-11-05T06:55:39.354Z,14.40
2017-11-05T06:58:06.861Z,14.30
2017-11-05T07:00:34.466Z,13.90
2017-11-05T07:03:02.084Z,13.80
2017-11-05T07:05:29.632Z,13.60
2017-11-05T07:07:57.217Z,13.90
2017-11-05T07:10:24.706Z,14.10
2017-11-05T07:12:52.189Z,14.40
2017-11-05T07:15:19.796Z,14.40
2017-11-05T07:17:47.281Z,14.50
2017-11-05T07:20:14.885Z,14.70
2017-11-05T07:22:43.148Z,14.20
2017-11-05T07:25:12.138Z,14.10
2017-11-05T07:27:39.721Z,14.10
2017-11-05T07:30:07.969Z,14.50
2017-11-05T07:32:35.459Z,14.50
2017-11-05T07:35:03.722Z,14.60
2017-11-05T07:37:31.982Z,14.60
2017-11-05T07:39:59.481Z,14.50
2017-11-05T07:42:26.970Z,14.70
2017-11-05T07:44:54.518Z,14.70
2017-11-05T07:47:22.015Z,14.80
2017-11-05T07:49:49.506Z,14.80
2017-11-05T07:52:17.758Z,14.60
2017-11-05T07:54:45.238Z,14.50
2017-11-05T07:57:14.120Z,14.60
2017-11-05T07:59:41.618Z,14.60
2017-11-05T08:02:09.111Z,14.90
2017-11-05T08:04:36.604Z,14.80
2017-11-05T08:07:04.854Z,15.00
2017-11-05T08:09:32.343Z,14.90
2017-11-05T08:12:00.585Z,15.00
2017-11-05T08:14:28.076Z,15.00
2017-11-05T08:16:56.340Z,14.90
2017-11-05T08:19:24.594Z,15.00
2017-11-05T08:21:52.105Z,14.90
2017-11-05T08:24:20.368Z,14.90
2017-11-05T08:26:48.646Z,14.90
2017-11-05T08:29:16.888Z,15.00
2017-11-05T08:31:44.383Z,15.00
2017-11-05T08:34:12.650Z,15.10
2017-11-05T08:36:40.918Z,15.10
2017-11-05T08:39:08.412Z,15.10
2017-11-05T08:41:35.893Z,15.10
2017-11-05T08:44:03.373Z,15.10
2017-11-05T08:46:30.887Z,15.00
2017-11-05T08:48:59.141Z,15.20
2017-11-05T08:51:27.394Z,15.20
2017-11-05T08:53:54.883Z,15.10
2017-11-05T08:56:23.139Z,15.30
2017-11-05T08:58:51.407Z,15.40
2017-11-05T09:01:18.883Z,15.30
2017-11-05T09:03:46.367Z,15.40
2017-11-05T09:06:14.626Z,15.50
2017-11-05T09:08:42.887Z,15.40
2017-11-05T09:11:10.379Z,15.40
2017-11-05T09:13:38.617Z,15.70
2017-11-05T09:16:06.107Z,15.60
2017-11-05T09:18:34.354Z,15.80
2017-11-05T09:21:01.840Z,15.80
2017-11-05T09:23:30.100Z,15.80
2017-11-05T09:25:57.591Z,15.80
2017-11-05T09:28:25.078Z,15.90
2017-11-05T09:30:52.561Z,15.90
2017-11-05T09:33:20.052Z,15.90
2017-11-05T09:35:48.308Z,15.90
2017-11-05T09:38:15.788Z,15.80
2017-11-05T09:40:44.045Z,15.90
2017-11-05T09:43:11.536Z,15.90
2017-11-05T09:45:39.786Z,15.70
2017-11-05T09:48:07.272Z,15.60
2017-11-05T09:50:35.532Z,15.60
2017-11-05T09:53:03.787Z,15.50
2017-11-05T09:55:31.283Z,15.40
2017-11-05T09:57:59.549Z,15.50
2017-11-05T10:00:27.803Z,15.50
2017-11-05T10:02:55.296Z,15.40
2017-11-05T10:05:23.593Z,15.50
2017-11-05T10:07:51.091Z,15.50
2017-11-05T10:10:18.584Z,15.40
2017-11-05T10:12:46.835Z,15.50
2017-11-05T10:15:14.320Z,15.40
2017-11-05T10:17:42.573Z,15.30
2017-11-05T10:20:10.068Z,15.30
2017-11-05T10:22:37.571Z,15.20
2017-11-05T10:25:05.067Z,15.10
2017-11-05T10:27:33.318Z,15.10
2017-11-05T10:30:00.818Z,15.10
2017-11-05T10:32:29.066Z,14.80
2017-11-05T10:34:56.544Z,14.70
2017-11-05T10:37:24.798Z,14.70
2017-11-05T10:39:52.286Z,14.70
2017-11-05T10:42:20.552Z,14.50
2017-11-05T10:44:48.805Z,14.50
2017-11-05T10:47:16.303Z,14.40
2017-11-05T10:49:44.566Z,14.70
2017-11-05T10:52:12.831Z,14.80
2017-11-05T10:54:40.321Z,14.70
2017-11-05T10:57:08.650Z,14.90
2017-11-05T10:59:36.165Z,14.90
2017-11-05T11:02:03.668Z,14.70
2017-11-05T11:04:31.163Z,14.90
2017-11-05T11:06:59.434Z,15.10
2017-11-05T11:09:28.759Z,15.10
2017-11-05T11:11:56.263Z,15.00
2017-11-05T11:14:23.762Z,15.70
2017-11-05T11:16:52.179Z,14.90
2017-11-05T11:19:19.846Z,14.80
2017-11-05T11:21:47.418Z,14.80
2017-11-05T11:24:15.852Z,14.60
2017-11-05T11:26:44.177Z,14.50
2017-11-05T11:29:11.706Z,14.50
2017-11-05T11:31:39.286Z,14.50
2017-11-05T11:34:06.842Z,14.50
2017-11-05T11:36:34.510Z,14.30
2017-11-05T11:39:02.061Z,14.40
2017-11-05T11:41:29.559Z,14.40
2017-11-05T11:43:57.056Z,14.20
2017-11-05T11:46:25.326Z,14.10
2017-11-05T11:48:53.589Z,14.20
2017-11-05T11:51:21.903Z,14.20
2017-11-05T11:53:49.544Z,14.10
2017-11-05T11:56:17.838Z,14.10
2017-11-05T11:58:45.403Z,14.10
2017-11-05T12:01:13.065Z,14.20
2017-11-05T12:03:40.546Z,14.20
2017-11-05T12:06:08.088Z,14.20
2017-11-05T12:08:35.761Z,14.20
2017-11-05T12:11:03.497Z,14.30
2017-11-05T12:13:31.834Z,14.30
2017-11-05T12:15:59.391Z,14.20
2017-11-05T12:18:27.119Z,14.20
2017-11-05T12:20:54.799Z,14.20
2017-11-05T12:23:22.286Z,14.30
2017-11-05T12:25:50.913Z,14.20
2017-11-05T12:28:19.173Z,14.20
2017-11-05T12:30:46.675Z,14.20
2017-11-05T12:33:14.201Z,14.20
2017-11-05T12:35:42.516Z,14.10
2017-11-05T12:38:10.387Z,14.10
2017-11-05T12:40:38.287Z,14.10
2017-11-05T12:43:06.055Z,14.10
2017-11-05T12:45:33.741Z,14.10
2017-11-05T12:48:02.030Z,14.20
2017-11-05T12:50:30.894Z,14.20
2017-11-05T12:52:58.386Z,14.10
2017-11-05T12:55:26.131Z,14.10
2017-11-05T12:57:54.465Z,14.20
2017-11-05T13:00:21.970Z,14.20
2017-11-05T13:02:51.629Z,14.10
2017-11-05T13:05:19.181Z,14.00
2017-11-05T13:07:46.743Z,14.10
2017-11-05T13:10:14.236Z,14.10
2017-11-05T13:12:41.767Z,14.10
2017-11-05T13:15:09.257Z,14.20
2017-11-05T13:17:36.773Z,14.20
2017-11-05T13:20:04.257Z,14.10
2017-11-05T13:22:31.803Z,14.10
2017-11-05T13:24:59.296Z,14.00
2017-11-05T13:27:26.795Z,14.00
2017-11-05T13:29:54.304Z,14.00
2017-11-05T13:32:21.794Z,14.00
2017-11-05T13:34:50.035Z,14.00
2017-11-05T13:37:17.514Z,13.90
2017-11-05T13:39:45.011Z,14.00
2017-11-05T13:42:12.511Z,14.00
2017-11-05T13:44:40.006Z,14.00
2017-11-05T13:47:08.311Z,14.10
2017-11-05T13:49:35.791Z,14.00
2017-11-05T13:52:03.377Z,14.40
2017-11-05T13:54:30.883Z,14.50
2017-11-05T13:56:59.135Z,14.60
2017-11-05T13:59:26.645Z,14.50
2017-11-05T14:01:54.134Z,14.80
2017-11-05T14:04:21.615Z,15.10
2017-11-05T14:06:49.926Z,14.90
2017-11-05T14:09:17.417Z,14.80
2017-11-05T14:11:44.930Z,14.80
2017-11-05T14:14:13.240Z,14.40
2017-11-05T14:16:40.761Z,14.30
2017-11-05T14:19:09.002Z,14.50
2017-11-05T14:21:36.509Z,14.50
2017-11-05T14:24:04.023Z,14.30
2017-11-05T14:26:31.506Z,14.10
2017-11-05T14:28:59.790Z,14.00
2017-11-05T14:31:28.060Z,14.10
2017-11-05T14:33:56.338Z,14.00
2017-11-05T14:36:23.874Z,14.00
2017-11-05T14:38:51.351Z,14.00
2017-11-05T14:41:19.659Z,14.80
2017-11-05T14:43:47.186Z,14.70
2017-11-05T14:46:14.679Z,14.60
2017-11-05T14:48:42.186Z,15.10
2017-11-05T14:51:09.715Z,14.30
2017-11-05T14:53:37.202Z,14.30
2017-11-05T14:56:04.689Z,14.50
2017-11-05T14:58:32.182Z,14.30
2017-11-05T15:00:59.723Z,14.30
2017-11-05T15:03:28.004Z,14.30
2017-11-05T15:05:56.292Z,14.50
2017-11-05T15:08:23.829Z,14.50
2017-11-05T15:10:52.083Z,14.40
2017-11-05T15:13:19.586Z,14.40
2017-11-05T15:15:47.130Z,14.90
2017-11-05T15:18:15.378Z,15.40
2017-11-05T15:20:42.925Z,15.30
2017-11-05T15:23:10.447Z,14.90
2017-11-05T15:25:37.970Z,14.80
2017-11-05T15:28:05.475Z,14.90
2017-11-05T15:30:32.968Z,14.70
2017-11-05T15:33:00.479Z,14.60
2017-11-05T15:35:28.010Z,14.80
2017-11-05T15:37:55.582Z,14.70
2017-11-05T15:40:23.875Z,14.90
2017-11-05T15:42:52.147Z,15.30
2017-11-05T15:45:20.417Z,15.50
2017-11-05T15:47:48.704Z,15.00
2017-11-05T15:50:16.972Z,14.90
2017-11-05T15:52:44.636Z,14.80
2017-11-05T15:55:13.032Z,15.20
2017-11-05T15:57:41.294Z,15.00
2017-11-05T16:00:09.658Z,14.70
2017-11-05T16:02:38.193Z,14.70
2017-11-05T16:05:06.262Z,14.50
2017-11-05T16:07:33.821Z,14.60
2017-11-05T16:10:01.307Z,14.60
2017-11-05T16:12:28.854Z,14.40
2017-11-05T16:14:56.505Z,14.40
2017-11-05T16:17:24.085Z,14.50
2017-11-05T16:19:51.584Z,14.50
2017-11-05T16:22:19.854Z,14.60
2017-11-05T16:24:47.353Z,14.50
2017-11-05T16:27:14.850Z,15.40
2017-11-05T16:29:42.382Z,15.50
2017-11-05T16:32:09.917Z,15.60
2017-11-05T16:34:38.200Z,14.90
2017-11-05T16:37:05.695Z,14.90
2017-11-05T16:39:33.189Z,15.60
2017-11-05T16:42:00.675Z,15.40
2017-11-05T16:44:28.240Z,15.20
2017-11-05T16:46:55.740Z,15.40
2017-11-05T16:49:23.246Z,15.60
2017-11-05T16:51:51.689Z,15.00
2017-11-05T16:54:19.261Z,14.90
2017-11-05T16:56:46.878Z,14.80
2017-11-05T16:59:14.437Z,15.30
2017-11-05T17:01:42.102Z,15.10
2017-11-05T17:04:09.585Z,15.30
2017-11-05T17:06:37.103Z,15.10
2017-11-05T17:09:04.651Z,15.50
2017-11-05T17:11:32.915Z,15.40
2017-11-05T17:14:01.230Z,15.20
2017-11-05T17:16:28.724Z,15.20
2017-11-05T17:18:56.210Z,15.30
2017-11-05T17:21:24.467Z,15.40
2017-11-05T17:23:51.955Z,15.40
2017-11-05T17:26:20.215Z,15.40
2017-11-05T17:28:47.698Z,15.40
2017-11-05T17:31:15.963Z,15.50
2017-11-05T17:33:44.215Z,15.50
2017-11-05T17:36:11.715Z,15.50
2017-11-05T17:38:40.011Z,15.50
2017-11-05T17:41:07.554Z,15.40
2017-11-05T17:43:35.055Z,15.80
2017-11-05T17:46:02.556Z,16.00
2017-11-05T17:48:30.804Z,15.50
2017-11-05T17:50:58.356Z,15.50
2017-11-05T17:53:25.863Z,15.30
2017-11-05T17:55:54.126Z,14.70
2017-11-05T17:58:21.651Z,14.60
2017-11-05T18:00:49.291Z,14.70
2017-11-05T18:03:16.819Z,14.80
2017-11-05T18:05:44.413Z,15.20
2017-11-05T18:08:12.325Z,16.40
2017-11-05T18:10:40.074Z,16.10
2017-11-05T18:13:09.458Z,15.70
2017-11-05T18:15:37.043Z,15.30
2017-11-05T18:18:04.954Z,15.90
2017-11-05T18:20:33.527Z,15.00
2017-11-05T18:23:01.777Z,15.30
2017-11-05T18:25:29.276Z,15.20
2017-11-05T18:27:59.116Z,15.20
2017-11-05T18:30:27.893Z,15.20
2017-11-05T18:32:55.435Z,15.20
2017-11-05T18:35:24.022Z,15.40
2017-11-05T18:37:53.319Z,15.40
2017-11-05T18:40:22.550Z,15.80
2017-11-05T18:42:50.473Z,15.80
2017-11-05T18:45:18.901Z,15.50
2017-11-05T18:47:47.245Z,15.40
2017-11-05T18:50:16.288Z,15.30
2017-11-05T18:52:44.551Z,15.30
2017-11-05T18:55:13.683Z,14.90
2017-11-05T18:57:41.694Z,14.90
2017-11-05T19:00:09.691Z,14.80
2017-11-05T19:02:38.116Z,15.50
2017-11-05T19:05:05.755Z,15.50
2017-11-05T19:07:33.553Z,15.40
2017-11-05T19:10:01.076Z,15.00
2017-11-05T19:12:28.712Z,16.50
2017-11-05T19:14:56.309Z,17.30
2017-11-05T19:17:24.020Z,17.90
2017-11-05T19:19:52.281Z,17.50
2017-11-05T19:22:19.755Z,17.50
2017-11-05T19:24:48.024Z,17.00
2017-11-05T19:27:16.297Z,17.00
2017-11-05T19:29:44.646Z,16.60
2017-11-05T19:32:12.144Z,16.50
2017-11-05T19:34:40.451Z,17.60
2017-11-05T19:37:07.938Z,17.60
2017-11-05T19:39:35.629Z,18.50
2017-11-05T19:42:03.985Z,18.80
2017-11-05T19:44:31.519Z,18.80
2017-11-05T19:46:59.040Z,19.40
2017-11-05T19:49:27.780Z,19.40
2017-11-05T19:51:55.310Z,19.40
2017-11-05T19:54:22.811Z,19.60
2017-11-05T19:56:50.362Z,18.90
2017-11-05T19:59:17.868Z,18.70
2017-11-05T20:01:46.129Z,18.10
2017-11-05T20:04:13.652Z,18.00
2017-11-05T20:06:41.206Z,17.30
2017-11-05T20:09:08.763Z,16.30
2017-11-05T20:11:36.265Z,15.80
2017-11-05T20:14:03.751Z,15.50
2017-11-05T20:16:32.012Z,15.30
2017-11-05T20:19:01.058Z,15.30
2017-11-05T20:21:28.571Z,15.20
2017-11-05T20:23:56.846Z,15.10
2017-11-05T20:26:24.453Z,15.10
2017-11-05T20:28:51.974Z,15.00
2017-11-05T20:31:20.249Z,15.60
2017-11-05T20:33:48.590Z,15.60
2017-11-05T20:36:16.073Z,15.60
2017-11-05T20:38:43.574Z,15.30
2017-11-05T20:41:11.098Z,15.10
2017-11-05T20:43:38.586Z,15.00
2017-11-05T20:46:06.075Z,15.90
2017-11-05T20:48:33.656Z,16.30
2017-11-05T20:51:01.163Z,16.40
2017-11-05T20:53:29.435Z,15.50
2017-11-05T20:55:56.959Z,15.50
2017-11-05T20:58:24.463Z,15.90
2017-11-05T21:00:52.011Z,15.40
2017-11-05T21:03:20.308Z,15.40
2017-11-05T21:05:47.840Z,15.40
2017-11-05T21:08:16.108Z,15.10
2017-11-05T21:10:43.808Z,15.10
2017-11-05T21:13:11.285Z,15.70
2017-11-05T21:15:38.779Z,15.30
2017-11-05T21:18:06.285Z,15.30
2017-11-05T21:20:33.775Z,15.80
2017-11-05T21:23:01.322Z,15.60
2017-11-05T21:25:28.808Z,15.70
2017-11-05T21:27:56.323Z,15.90
2017-11-05T21:30:23.898Z,15.50
2017-11-05T21:32:51.379Z,15.30
2017-11-05T21:35:18.865Z,15.30
2017-11-05T21:37:46.346Z,15.70
2017-11-05T21:40:14.592Z,15.40
2017-11-05T21:42:42.091Z,15.30
2017-11-05T21:45:09.587Z,15.60
2017-11-05T21:47:37.080Z,15.40
2017-11-05T21:50:04.580Z,15.20
2017-11-05T21:52:32.071Z,14.90
2017-11-05T21:54:59.563Z,14.70
2017-11-05T21:57:27.823Z,14.60
2017-11-05T21:59:55.310Z,14.50
2017-11-05T22:02:23.558Z,14.80
2017-11-05T22:04:51.041Z,14.80
2017-11-05T22:07:19.354Z,14.80
2017-11-05T22:09:46.837Z,14.80
2017-11-05T22:12:14.462Z,15.10
2017-11-05T22:14:41.955Z,15.10
2017-11-05T22:17:09.478Z,14.90
2017-11-05T22:19:37.271Z,14.80
2017-11-05T22:22:04.757Z,14.70
2017-11-05T22:24:32.243Z,14.80
2017-11-05T22:27:00.505Z,15.10
2017-11-05T22:29:28.423Z,15.00
2017-11-05T22:31:55.925Z,15.10
2017-11-05T22:34:23.423Z,15.20
2017-11-05T22:36:51.003Z,15.40
2017-11-05T22:39:18.496Z,14.70
2017-11-05T22:41:45.983Z,14.50
2017-11-05T22:44:14.233Z,14.70
2017-11-05T22:46:41.705Z,14.70
2017-11-05T22:49:09.196Z,14.80
2017-11-05T22:51:36.688Z,14.50
2017-11-05T22:54:04.179Z,14.40
2017-11-05T22:56:33.176Z,14.20
2017-11-05T22:59:00.952Z,14.20
2017-11-05T23:01:29.212Z,14.20
2017-11-05T23:03:56.699Z,14.20
2017-11-05T23:06:24.942Z,14.20
2017-11-05T23:08:52.417Z,14.20
2017-11-05T23:11:19.909Z,14.10
2017-11-05T23:13:47.394Z,14.10
2017-11-05T23:16:14.873Z,14.00
2017-11-05T23:18:42.365Z,14.10
2017-11-05T23:21:10.839Z,14.00
2017-11-05T23:23:39.082Z,14.50
2017-11-05T23:26:06.561Z,14.50
2017-11-05T23:28:34.033Z,14.00
2017-11-05T23:31:01.512Z,13.70
2017-11-05T23:33:29.187Z,13.90
2017-11-05T23:35:56.665Z,13.70
2017-11-05T23:38:24.156Z,13.60
2017-11-05T23:40:51.650Z,13.40
2017-11-05T23:43:19.903Z,13.60
2017-11-05T23:45:48.146Z,13.60
2017-11-05T23:48:15.621Z,13.60
2017-11-05T23:50:43.112Z,13.90
2017-11-05T23:53:12.534Z,13.40
2017-11-05T23:55:40.076Z,13.40
2017-11-05T23:58:08.335Z,13.10
